Time;durP1;ratioP1;P1;durP2;ratioP2;P2;SDS_P1;SDS_P2;PMS_P1;PMS_P2;Temp;Humidity;BMP_temperature;BMP_pressure;BME280_temperature;BME280_humidity;BME280_pressure;Samples;Min_cycle;Max_cycle;Signal;HPM_P1;HPM_P2
2022/06/07 00:05:06;;;;;;;7.20;3.33;;;;;;;24.58;48.13;100185.53;20781526;27;102674;-77
2022/06/07 00:15:08;;;;;;;3.90;3.30;;;;;;;24.53;48.42;100193.91;20780884;27;97730;-76
2022/06/07 00:25:11;;;;;;;4.13;2.95;;;;;;;24.48;48.33;100182.94;20771429;27;99881;-76
2022/06/07 00:35:13;;;;;;;4.32;3.30;;;;;;;24.45;48.53;100181.41;20781048;27;97811;-77
2022/06/07 00:45:17;;;;;;;3.40;3.10;;;;;;;24.38;48.30;100179.50;20777034;27;100837;-77
2022/06/07 00:55:18;;;;;;;4.32;2.75;;;;;;;24.36;48.40;100179.63;20771224;27;99925;-76
2022/06/07 01:05:19;;;;;;;3.80;2.33;;;;;;;24.26;48.27;100177.00;20770312;27;98481;-77
2022/06/07 01:15:19;;;;;;;2.60;2.13;;;;;;;24.20;48.42;100163.53;20770406;27;99533;-76
2022/06/07 01:25:20;;;;;;;3.20;2.17;;;;;;;24.11;48.70;100149.38;20780705;27;97289;-76
2022/06/07 01:35:21;;;;;;;2.90;2.30;;;;;;;24.02;48.87;100158.97;20777067;27;97465;-76
2022/06/07 01:45:22;;;;;;;3.93;2.63;;;;;;;23.98;48.82;100154.97;20792943;27;100447;-77
2022/06/07 01:55:22;;;;;;;2.20;2.00;;;;;;;23.96;48.46;100144.53;20774953;27;100114;-77
2022/06/07 02:05:23;;;;;;;3.30;2.00;;;;;;;23.92;48.82;100142.28;20782009;27;100022;-76
2022/06/07 02:15:24;;;;;;;2.67;2.00;;;;;;;23.82;49.11;100137.84;20779028;27;97784;-77
2022/06/07 02:25:25;;;;;;;2.92;1.85;;;;;;;23.77;49.59;100118.94;20783949;27;98142;-76
2022/06/07 02:35:25;;;;;;;2.93;2.00;;;;;;;23.76;49.17;100121.72;20783782;27;97657;-76
2022/06/07 02:45:26;;;;;;;3.58;1.85;;;;;;;23.76;49.38;100113.81;20789120;27;99953;-76
2022/06/07 02:55:27;;;;;;;2.80;1.92;;;;;;;23.74;49.29;100123.69;20787925;27;101554;-76
2022/06/07 03:05:27;;;;;;;3.90;2.23;;;;;;;23.65;49.36;100120.06;20798115;27;97168;-77
2022/06/07 03:15:28;;;;;;;3.20;2.35;;;;;;;23.58;49.31;100119.81;20794028;27;97330;-77
2022/06/07 03:25:30;;;;;;;3.58;2.80;;;;;;;23.50;49.39;100114.41;20793132;27;96999;-76
2022/06/07 03:35:30;;;;;;;3.38;2.50;;;;;;;23.49;49.47;100123.31;20772801;27;100859;-76
2022/06/07 03:45:31;;;;;;;3.05;2.35;;;;;;;23.42;49.56;100114.25;20785544;27;98382;-77
2022/06/07 03:55:32;;;;;;;5.90;2.30;;;;;;;23.36;50.11;100122.75;20785756;27;97529;-77
2022/06/07 04:05:37;;;;;;;3.15;2.30;;;;;;;23.38;49.81;100116.34;20763618;27;100036;-76
2022/06/07 04:15:38;;;;;;;3.58;2.60;;;;;;;23.33;50.51;100106.19;20759057;27;98769;-78
2022/06/07 04:25:41;;;;;;;3.37;2.10;;;;;;;23.14;50.84;100101.75;20768905;27;100365;-76
2022/06/07 04:35:45;;;;;;;3.75;2.70;;;;;;;23.09;51.13;100092.56;20782277;27;99520;-82
2022/06/07 04:46:01;;;;;;;3.20;2.50;;;;;;;23.06;51.55;100085.75;20778952;27;100269;-83
2022/06/07 04:56:10;;;;;;;4.55;2.75;;;;;;;22.70;52.59;100096.81;20761138;27;97340;-77
2022/06/07 05:06:23;;;;;;;8.60;2.63;;;;;;;22.79;52.53;100102.22;20750466;27;99021;-84
2022/06/07 05:16:24;;;;;;;6.78;2.53;;;;;;;22.77;52.68;100104.19;20774749;27;98877;-80
2022/06/07 05:26:35;;;;;;;3.05;2.33;;;;;;;22.88;52.63;100100.59;20798935;27;96887;-77
2022/06/07 05:36:35;;;;;;;3.33;2.40;;;;;;;22.79;52.94;100108.38;20770893;27;98326;-79
2022/06/07 05:46:36;;;;;;;4.20;2.20;;;;;;;22.74;52.88;100115.88;20781304;27;99180;-78
2022/06/07 05:56:36;;;;;;;5.22;2.20;;;;;;;22.89;52.44;100108.38;20767703;27;100196;-78
2022/06/07 06:06:37;;;;;;;5.07;2.20;;;;;;;23.03;52.23;100107.97;20779055;27;99989;-79
2022/06/07 06:16:40;;;;;;;5.30;2.00;;;;;;;23.16;51.71;100102.44;20806735;27;97670;-80
2022/06/07 06:26:42;;;;;;;4.38;1.70;;;;;;;23.28;51.48;100104.97;20790855;27;98109;-81
2022/06/07 06:36:44;;;;;;;3.93;1.73;;;;;;;23.37;50.65;100093.53;20800494;27;97096;-80
2022/06/07 06:46:47;;;;;;;1.70;1.60;;;;;;;23.55;50.19;100090.19;20799849;27;101952;-80
2022/06/07 06:56:48;;;;;;;4.82;1.75;;;;;;;23.60;49.29;100083.50;20798324;27;99099;-81
2022/06/07 07:06:50;;;;;;;1.20;1.10;;;;;;;23.74;48.84;100073.44;20780410;27;99744;-80
2022/06/07 07:16:52;;;;;;;5.80;1.43;;;;;;;23.80;48.09;100081.66;20808867;27;97374;-75
2022/06/07 07:26:53;;;;;;;5.72;1.33;;;;;;;23.92;47.95;100073.53;20770186;27;98599;-74
2022/06/07 07:36:53;;;;;;;1.48;1.17;;;;;;;23.98;47.82;100059.75;20773421;27;98131;-73
2022/06/07 07:46:55;;;;;;;2.95;1.17;;;;;;;24.08;47.42;100049.13;20782187;27;99840;-75
2022/06/07 07:56:56;;;;;;;2.45;1.30;;;;;;;24.22;47.10;100045.19;20798991;27;98311;-76
2022/06/07 08:06:57;;;;;;;3.38;0.98;;;;;;;24.30;47.08;100053.19;20768743;27;98421;-74
2022/06/07 08:16:58;;;;;;;5.53;1.00;;;;;;;24.41;46.66;100039.78;20777240;27;97216;-73
2022/06/07 08:26:58;;;;;;;1.92;1.10;;;;;;;24.51;46.53;100023.00;20779133;27;97427;-75
2022/06/07 08:37:59;;;;;;;13.93;1.20;;;;;;;24.56;44.91;100021.56;20806821;27;97508;-75
2022/06/07 08:47:41;;;;;;;1.98;1.00;;;;;;;24.63;45.73;100016.50;20780024;27;97988;-75
2022/06/07 08:57:47;;;;;;;1.05;1.05;;;;;;;24.67;44.58;100009.97;20781863;27;97517;-75
2022/06/07 09:07:48;;;;;;;1.83;0.95;;;;;;;24.78;43.89;100012.38;20787139;27;99754;-76
2022/06/07 09:17:52;;;;;;;1.47;0.80;;;;;;;24.83;43.32;100011.94;20797857;27;101024;-76
2022/06/07 09:27:53;;;;;;;5.25;1.30;;;;;;;24.88;44.15;99993.75;20793875;27;97176;-76
2022/06/07 09:37:58;;;;;;;0.90;0.90;;;;;;;24.96;43.61;99984.22;20778820;27;97339;-75
2022/06/07 09:48:19;;;;;;;2.88;1.25;;;;;;;25.08;43.35;99975.03;20780519;27;98680;-75
2022/06/07 09:58:47;;;;;;;1.20;1.10;;;;;;;25.17;42.59;99973.28;20810042;27;97165;-76
2022/06/07 10:09:05;;;;;;;1.48;1.00;;;;;;;25.31;42.57;99956.00;20808753;27;98481;-76
2022/06/07 10:19:15;;;;;;;2.90;0.90;;;;;;;25.32;41.82;99947.06;20813701;27;100316;-75
2022/06/07 10:29:34;;;;;;;2.33;1.20;;;;;;;25.44;41.87;99935.22;20808442;27;97610;-74
2022/06/07 10:40:10;;;;;;;0.90;0.90;;;;;;;25.44;40.97;99932.56;20808404;27;97355;-74
2022/06/07 10:50:20;;;;;;;2.15;0.90;;;;;;;25.48;40.99;99910.03;20792105;27;97701;-74
2022/06/07 11:00:40;;;;;;;2.72;1.05;;;;;;;25.54;40.26;99898.81;20805169;27;97240;-74
2022/06/07 11:10:42;;;;;;;3.65;1.30;;;;;;;25.58;40.78;99883.41;20804183;27;98180;-74
2022/06/07 11:21:00;;;;;;;;;;;;;;;25.61;40.79;99875.16;20811109;27;97532;-78
2022/06/07 11:31:28;;;;;;;3.72;1.00;;;;;;;25.67;40.43;99871.84;20799398;27;98258;-79
2022/06/07 11:41:37;;;;;;;1.15;1.05;;;;;;;25.79;40.07;99860.94;20797120;27;100871;-78
2022/06/07 11:51:38;;;;;;;7.78;3.97;;;;;;;25.89;39.43;99843.06;20794486;27;97302;-77
2022/06/07 12:01:44;;;;;;;11.50;5.43;;;;;;;26.00;39.42;99826.84;20779027;27;101611;-77
2022/06/07 12:11:45;;;;;;;3.70;1.75;;;;;;;26.11;38.79;99820.41;20773113;27;99440;-77
2022/06/07 12:22:01;;;;;;;4.78;1.90;;;;;;;26.21;39.47;99813.09;20768396;27;101082;-78
2022/06/07 12:32:06;;;;;;;5.45;1.60;;;;;;;26.32;38.32;99803.97;20771167;27;98177;-79
2022/06/07 12:42:12;;;;;;;3.95;1.30;;;;;;;26.39;38.60;99808.63;20758050;27;100995;-78
2022/06/07 12:52:16;;;;;;;4.35;1.42;;;;;;;26.35;39.37;99793.03;20761854;27;100281;-79
2022/06/07 13:02:23;;;;;;;3.95;1.58;;;;;;;26.43;39.26;99780.75;20739918;27;1231336;-79
2022/06/07 13:12:30;;;;;;;3.92;1.95;;;;;;;26.44;38.67;99769.13;20765562;27;97051;-80
2022/06/07 13:22:42;;;;;;;3.28;1.60;;;;;;;26.56;38.35;99770.41;20789669;27;98993;-80
2022/06/07 13:32:44;;;;;;;2.35;1.60;;;;;;;26.52;37.99;99758.47;20788162;27;97593;-79
2022/06/07 13:43:00;;;;;;;6.38;2.10;;;;;;;26.54;36.83;99759.16;20764447;27;99146;-78
2022/06/07 13:53:22;;;;;;;4.55;2.17;;;;;;;26.53;35.98;99750.34;20796424;27;97468;-79
2022/06/07 14:03:35;;;;;;;2.17;2.00;;;;;;;26.55;36.87;99746.69;20782578;27;101253;-79
2022/06/07 14:13:35;;;;;;;6.53;2.28;;;;;;;26.54;37.19;99740.56;20763097;27;97199;-78
2022/06/07 14:23:36;;;;;;;2.83;2.30;;;;;;;26.54;37.00;99729.94;20784210;27;98011;-78
2022/06/07 14:33:36;;;;;;;4.28;2.28;;;;;;;26.56;37.25;99721.81;20780988;27;100627;-78
2022/06/07 14:43:38;;;;;;;2.47;2.28;;;;;;;26.58;37.23;99710.00;20796292;27;97712;-78
2022/06/07 14:53:39;;;;;;;2.85;2.42;;;;;;;26.62;36.72;99706.03;20798887;27;97055;-79
2022/06/07 15:03:41;;;;;;;2.97;2.65;;;;;;;26.69;38.25;99706.97;20801548;27;97042;-79
2022/06/07 15:13:43;;;;;;;6.55;2.72;;;;;;;26.68;37.85;99702.69;20799981;27;97123;-79
2022/06/07 15:23:43;;;;;;;4.68;2.50;;;;;;;26.69;38.11;99693.69;20807265;27;97462;-79
2022/06/07 15:33:47;;;;;;;6.05;2.70;;;;;;;26.68;37.27;99677.94;20782753;27;98617;-80
2022/06/07 15:43:47;;;;;;;4.50;2.75;;;;;;;26.66;37.78;99680.78;20810152;27;99111;-78
2022/06/07 15:53:48;;;;;;;3.92;2.50;;;;;;;26.70;37.70;99670.63;20793549;27;97285;-79
2022/06/07 16:03:49;;;;;;;5.00;2.50;;;;;;;26.66;38.07;99672.81;20770357;27;97851;-78
2022/06/07 16:13:50;;;;;;;7.25;3.05;;;;;;;26.68;37.57;99676.13;20787994;27;97120;-78
2022/06/07 16:23:51;;;;;;;7.13;2.70;;;;;;;26.69;37.60;99669.78;20765217;27;97141;-78
2022/06/07 16:33:51;;;;;;;4.63;3.10;;;;;;;26.70;38.14;99675.94;20751204;27;97664;-78
2022/06/07 16:44:01;;;;;;;6.70;2.92;;;;;;;26.76;37.22;99671.81;20791308;27;98622;-78
2022/06/07 16:54:01;;;;;;;4.57;3.00;;;;;;;26.82;37.66;99665.81;20785173;27;100272;-78
2022/06/07 17:04:02;;;;;;;3.90;2.90;;;;;;;26.86;37.43;99668.94;20776381;27;100926;-78
2022/06/07 17:14:03;;;;;;;3.72;3.05;;;;;;;26.88;37.12;99664.25;20775474;27;98542;-77
2022/06/07 17:24:05;;;;;;;5.53;3.10;;;;;;;26.87;37.12;99665.25;20778527;27;100782;-79
2022/06/07 17:34:06;;;;;;;3.85;3.05;;;;;;;26.86;36.88;99655.66;20783052;27;97206;-80
2022/06/07 17:44:06;;;;;;;;;;;;;;;26.83;38.92;99649.69;20784490;27;98128;-78
2022/06/07 17:54:08;;;;;;;4.05;3.03;;;;;;;26.89;39.27;99653.50;20741155;27;100422;-79
2022/06/07 18:04:09;;;;;;;5.28;3.33;;;;;;;26.90;40.03;99641.03;20751295;27;99925;-78
2022/06/07 18:14:09;;;;;;;3.40;3.10;;;;;;;26.92;39.98;99639.03;20786595;27;97667;-77
2022/06/07 18:42:50;;;;;;;7.30;4.50;;;;;;;26.79;37.82;99637.78;20813797;27;97418;-79
2022/06/07 18:52:51;;;;;;;;;;;;;;;26.67;38.10;99639.09;20727584;27;99449;-80
2022/06/07 19:02:58;;;;;;;4.45;3.95;;;;;;;26.52;39.14;99650.47;20751981;27;99885;-81
2022/06/07 19:12:59;;;;;;;11.43;3.90;;;;;;;26.47;39.63;99654.63;20754024;27;101414;-84
2022/06/07 19:22:59;;;;;;;;;;;;;;;26.37;39.97;99662.81;20717350;27;99032;-78
2022/06/07 19:33:00;;;;;;;6.10;4.30;;;;;;;26.29;40.27;99655.69;20715778;27;100475;-81
2022/06/07 19:43:01;;;;;;;5.20;4.70;;;;;;;26.31;40.31;99668.78;20641902;27;100192;-78
2022/06/07 19:53:03;;;;;;;6.72;4.55;;;;;;;26.28;40.75;99669.97;20590538;28;98244;-78
2022/06/07 20:03:06;;;;;;;6.03;4.38;;;;;;;26.23;41.87;99682.88;20673169;28;97918;-79
2022/06/07 20:13:08;;;;;;;7.75;3.63;;;;;;;26.12;43.13;99689.41;20679714;27;97950;-78
2022/06/07 20:23:10;;;;;;;4.90;3.00;;;;;;;26.05;43.94;99685.72;20672803;28;97676;-78
2022/06/07 20:33:10;;;;;;;6.07;2.60;;;;;;;25.95;45.41;99696.53;20669764;28;97286;-77
2022/06/07 20:43:12;;;;;;;6.47;3.00;;;;;;;25.91;46.10;99695.19;20680540;28;101852;-78
2022/06/07 20:53:13;;;;;;;6.47;3.05;;;;;;;25.85;46.10;99677.28;20643006;27;100203;-77
2022/06/07 21:03:14;;;;;;;3.87;2.97;;;;;;;25.79;47.27;99686.72;20678297;28;100284;-77
2022/06/07 21:13:14;;;;;;;3.70;3.00;;;;;;;25.69;47.25;99686.91;20676890;28;97547;-78
2022/06/07 21:23:18;;;;;;;3.50;2.70;;;;;;;25.65;47.50;99668.84;20662261;28;103511;-78
2022/06/07 21:33:18;;;;;;;5.13;3.00;;;;;;;25.54;47.61;99664.72;20699488;28;97122;-79
2022/06/07 21:43:19;;;;;;;3.20;2.60;;;;;;;25.47;47.31;99648.63;20708461;28;97932;-78
2022/06/07 21:53:20;;;;;;;5.83;2.73;;;;;;;25.46;47.53;99649.63;20701015;28;97569;-78
2022/06/07 22:03:22;;;;;;;5.10;2.60;;;;;;;25.40;47.24;99644.97;20677516;28;96934;-78
2022/06/07 22:13:26;;;;;;;6.68;3.03;;;;;;;25.34;47.30;99653.56;20629645;27;102044;-78
2022/06/07 22:23:27;;;;;;;4.43;2.50;;;;;;;25.26;47.38;99649.91;20611462;28;98012;-77
2022/06/07 22:33:27;;;;;;;7.53;2.80;;;;;;;25.20;47.65;99644.44;20639475;28;102623;-77
2022/06/07 22:43:28;;;;;;;3.28;2.60;;;;;;;25.18;47.57;99636.66;20628479;28;98976;-78
2022/06/07 22:53:41;;;;;;;4.85;2.78;;;;;;;25.07;47.60;99624.56;20641179;28;97391;-79
2022/06/07 23:03:46;;;;;;;3.08;2.40;;;;;;;25.08;47.76;99609.47;20631905;28;98170;-79
2022/06/07 23:24:22;;;;;;;4.07;2.60;;;;;;;24.90;48.08;99613.09;20636623;28;97356;-78
2022/06/07 23:34:23;;;;;;;4.00;2.77;;;;;;;24.85;47.84;99596.88;20643021;28;104230;-78
2022/06/07 23:44:25;;;;;;;3.42;2.50;;;;;;;24.85;47.67;99596.03;20633234;28;100685;-77
2022/06/07 23:54:29;;;;;;;2.72;1.95;;;;;;;24.77;47.88;99588.91;20658064;28;99540;-78
